createdAt,value
2018-06-24T00:00:23.988Z,13.02
2018-06-24T00:02:50.273Z,13.02
2018-06-24T00:05:16.567Z,12.95
2018-06-24T00:07:42.883Z,12.94
2018-06-24T00:10:09.171Z,12.85
2018-06-24T00:12:35.460Z,12.79
2018-06-24T00:15:01.753Z,12.75
2018-06-24T00:17:28.047Z,12.72
2018-06-24T00:19:54.339Z,12.55
2018-06-24T00:22:20.623Z,12.50
2018-06-24T00:24:46.944Z,12.42
2018-06-24T00:27:13.242Z,12.37
2018-06-24T00:29:39.526Z,12.40
2018-06-24T00:32:05.820Z,12.55
2018-06-24T00:34:32.119Z,12.51
2018-06-24T00:36:58.411Z,12.49
2018-06-24T00:39:24.701Z,12.45
2018-06-24T00:41:50.994Z,12.50
2018-06-24T00:44:17.286Z,12.66
2018-06-24T00:46:43.577Z,12.69
2018-06-24T00:49:09.900Z,12.62
2018-06-24T00:51:36.189Z,12.60
2018-06-24T00:54:02.483Z,12.60
2018-06-24T00:56:28.769Z,12.56
2018-06-24T00:58:55.059Z,12.57
2018-06-24T01:01:21.391Z,12.55
2018-06-24T01:03:47.687Z,12.55
2018-06-24T01:06:13.975Z,12.57
2018-06-24T01:08:40.269Z,12.65
2018-06-24T01:11:06.563Z,12.69
2018-06-24T01:13:32.906Z,12.58
2018-06-24T01:15:59.195Z,12.52
2018-06-24T01:18:25.495Z,12.52
2018-06-24T01:20:51.791Z,12.46
2018-06-24T01:23:18.074Z,12.43
2018-06-24T01:25:44.362Z,12.43
2018-06-24T01:28:10.659Z,12.42
2018-06-24T01:30:36.982Z,12.45
2018-06-24T01:33:03.273Z,12.46
2018-06-24T01:35:29.568Z,12.36
2018-06-24T01:37:55.881Z,12.35
2018-06-24T01:40:22.206Z,12.26
2018-06-24T01:42:48.466Z,12.27
2018-06-24T01:45:14.770Z,12.25
2018-06-24T01:47:41.079Z,12.27
2018-06-24T01:50:07.362Z,12.32
2018-06-24T01:52:33.689Z,12.29
2018-06-24T01:54:59.993Z,12.17
2018-06-24T01:57:26.280Z,12.04
2018-06-24T01:59:52.570Z,12.05
2018-06-24T02:02:18.860Z,12.06
2018-06-24T02:04:45.161Z,12.08
2018-06-24T02:07:11.449Z,12.03
2018-06-24T02:09:37.744Z,12.06
2018-06-24T02:12:04.026Z,12.07
2018-06-24T02:14:30.362Z,11.95
2018-06-24T02:16:56.653Z,11.80
2018-06-24T02:19:22.941Z,11.73
2018-06-24T02:21:49.239Z,11.61
2018-06-24T02:24:15.523Z,11.66
2018-06-24T02:26:41.827Z,11.71
2018-06-24T02:29:08.116Z,11.56
2018-06-24T02:31:34.447Z,11.45
2018-06-24T02:34:00.736Z,11.34
2018-06-24T02:36:27.028Z,11.29
2018-06-24T02:38:53.324Z,11.22
2018-06-24T02:41:19.607Z,11.15
2018-06-24T02:43:45.935Z,11.15
2018-06-24T02:46:12.219Z,11.11
2018-06-24T02:48:38.503Z,11.08
2018-06-24T02:51:04.790Z,10.97
2018-06-24T02:53:31.101Z,10.85
2018-06-24T02:55:57.375Z,10.76
2018-06-24T02:58:23.697Z,10.77
2018-06-24T03:00:50.000Z,10.72
2018-06-24T03:03:16.288Z,10.68
2018-06-24T03:05:42.570Z,10.63
2018-06-24T03:08:08.866Z,10.66
2018-06-24T03:10:35.160Z,10.64
2018-06-24T03:13:01.459Z,10.59
2018-06-24T03:15:27.776Z,10.56
2018-06-24T03:17:54.064Z,10.58
2018-06-24T03:20:20.378Z,10.55
2018-06-24T03:22:46.672Z,10.52
2018-06-24T03:25:12.960Z,10.53
2018-06-24T03:27:39.254Z,10.55
2018-06-24T03:30:05.549Z,10.57
2018-06-24T03:32:31.874Z,10.61
2018-06-24T03:34:58.162Z,10.58
2018-06-24T03:37:24.456Z,10.59
2018-06-24T03:39:50.746Z,10.57
2018-06-24T03:42:17.030Z,10.53
2018-06-24T03:44:43.323Z,10.56
2018-06-24T03:47:09.611Z,10.62
2018-06-24T03:49:35.949Z,10.60
2018-06-24T03:52:02.237Z,10.58
2018-06-24T03:54:28.518Z,10.64
2018-06-24T03:56:54.809Z,10.70
2018-06-24T03:59:21.098Z,10.73
2018-06-24T04:01:47.385Z,10.71
2018-06-24T04:04:13.685Z,10.77
2018-06-24T04:06:40.014Z,10.87
2018-06-24T04:09:06.298Z,10.92
2018-06-24T04:11:32.588Z,10.94
2018-06-24T04:13:58.878Z,10.99
2018-06-24T04:16:25.168Z,10.89
2018-06-24T04:18:51.473Z,10.93
2018-06-24T04:21:17.755Z,11.16
2018-06-24T04:23:44.075Z,11.29
2018-06-24T04:26:10.364Z,11.42
2018-06-24T04:28:36.656Z,11.45
2018-06-24T04:31:02.985Z,11.54
2018-06-24T04:33:29.276Z,11.64
2018-06-24T04:35:55.602Z,11.71
2018-06-24T04:38:21.904Z,11.86
2018-06-24T04:40:48.204Z,11.99
2018-06-24T04:43:14.495Z,11.99
2018-06-24T04:45:40.783Z,12.09
2018-06-24T04:48:07.077Z,12.26
2018-06-24T04:50:33.364Z,12.39
2018-06-24T04:52:59.684Z,12.57
2018-06-24T04:55:25.977Z,12.72
2018-06-24T04:57:52.268Z,12.83
2018-06-24T05:00:18.555Z,13.10
2018-06-24T05:02:44.844Z,13.17
2018-06-24T05:05:11.147Z,13.77
2018-06-24T05:07:37.426Z,14.19
2018-06-24T05:10:03.749Z,14.63
2018-06-24T05:12:30.044Z,14.95
2018-06-24T05:14:56.327Z,15.28
2018-06-24T05:17:22.937Z,15.99
2018-06-24T05:19:49.234Z,16.51
2018-06-24T05:22:15.559Z,17.16
2018-06-24T05:24:41.843Z,17.35
2018-06-24T05:27:08.151Z,17.70
2018-06-24T05:29:34.465Z,17.44
2018-06-24T05:32:00.756Z,17.05
2018-06-24T05:34:27.047Z,17.00
2018-06-24T05:36:53.336Z,17.33
2018-06-24T05:39:19.622Z,17.65
2018-06-24T05:41:45.912Z,18.83
2018-06-24T05:44:12.205Z,20.30
2018-06-24T05:46:38.502Z,21.70
2018-06-24T05:49:04.815Z,22.29
2018-06-24T05:51:31.126Z,22.53
2018-06-24T05:53:57.404Z,22.61
2018-06-24T05:56:23.731Z,21.54
2018-06-24T05:58:50.028Z,21.59
2018-06-24T06:01:16.311Z,20.76
2018-06-24T06:03:42.600Z,19.75
2018-06-24T06:06:08.887Z,18.87
2018-06-24T06:08:35.186Z,19.28
2018-06-24T06:11:01.477Z,21.52
2018-06-24T06:13:27.821Z,22.62
2018-06-24T06:15:54.117Z,23.11
2018-06-24T06:18:20.411Z,23.23
2018-06-24T06:20:46.710Z,24.10
2018-06-24T06:23:13.003Z,24.51
2018-06-24T06:25:39.297Z,23.66
2018-06-24T06:28:05.584Z,22.68
2018-06-24T06:30:31.874Z,22.38
2018-06-24T06:32:58.162Z,22.59
2018-06-24T06:35:24.485Z,23.16
2018-06-24T06:37:50.772Z,23.72
2018-06-24T06:40:17.060Z,23.98
2018-06-24T06:42:43.359Z,24.29
2018-06-24T06:45:09.698Z,24.61
2018-06-24T06:47:35.935Z,24.58
2018-06-24T06:50:02.225Z,24.21
2018-06-24T06:52:28.542Z,24.42
2018-06-24T06:54:54.838Z,24.20
2018-06-24T06:57:21.129Z,24.32
2018-06-24T06:59:47.419Z,23.52
2018-06-24T07:02:13.719Z,23.59
2018-06-24T07:04:40.036Z,23.88
2018-06-24T07:07:06.327Z,23.99
2018-06-24T07:09:32.627Z,23.88
2018-06-24T07:11:58.935Z,24.30
2018-06-24T07:14:25.229Z,24.20
2018-06-24T07:16:51.529Z,23.90
2018-06-24T07:19:17.828Z,24.22
2018-06-24T07:21:44.170Z,23.85
2018-06-24T07:24:10.456Z,23.41
2018-06-24T07:26:36.745Z,23.91
2018-06-24T07:29:03.036Z,24.71
2018-06-24T07:31:29.330Z,24.74
2018-06-24T07:33:55.640Z,24.80
2018-06-24T07:36:21.932Z,24.73
2018-06-24T07:38:48.255Z,24.95
2018-06-24T07:41:14.540Z,24.60
2018-06-24T07:43:40.828Z,24.53
2018-06-24T07:46:07.129Z,23.40
2018-06-24T07:48:33.580Z,22.20
2018-06-24T07:50:59.909Z,21.40
2018-06-24T07:53:26.201Z,21.28
2018-06-24T07:55:52.575Z,21.51
2018-06-24T07:58:18.883Z,21.98
2018-06-24T08:00:45.158Z,21.58
2018-06-24T08:03:11.451Z,21.37
2018-06-24T08:05:37.733Z,22.87
2018-06-24T08:08:04.062Z,23.14
2018-06-24T08:10:30.356Z,22.72
2018-06-24T08:12:56.654Z,22.87
2018-06-24T08:15:22.964Z,22.49
2018-06-24T08:17:49.250Z,23.01
2018-06-24T08:20:15.573Z,24.65
2018-06-24T08:22:41.912Z,24.41
2018-06-24T08:25:08.150Z,22.93
2018-06-24T08:27:34.440Z,22.05
2018-06-24T08:30:00.737Z,22.73
2018-06-24T08:32:27.032Z,22.75
2018-06-24T08:34:53.331Z,22.38
2018-06-24T08:37:19.662Z,21.87
2018-06-24T08:39:45.947Z,22.37
2018-06-24T08:42:12.243Z,22.55
2018-06-24T08:44:38.547Z,22.62
2018-06-24T08:47:04.842Z,23.06
2018-06-24T08:49:31.149Z,23.04
2018-06-24T08:51:57.445Z,23.63
2018-06-24T08:54:23.796Z,23.98
2018-06-24T08:56:50.059Z,24.15
2018-06-24T08:59:16.350Z,23.44
2018-06-24T09:01:42.638Z,23.77
2018-06-24T09:04:08.932Z,23.26
2018-06-24T09:06:35.252Z,23.50
2018-06-24T09:09:01.543Z,23.63
2018-06-24T09:11:27.834Z,22.87
2018-06-24T09:13:54.137Z,22.07
2018-06-24T09:16:20.422Z,21.42
2018-06-24T09:18:46.748Z,20.94
2018-06-24T09:21:13.031Z,21.15
2018-06-24T09:23:39.321Z,21.04
2018-06-24T09:26:05.615Z,21.15
2018-06-24T09:28:31.911Z,21.16
2018-06-24T09:30:58.202Z,21.01
2018-06-24T09:33:24.490Z,21.15
2018-06-24T09:35:50.808Z,21.26
2018-06-24T09:38:17.097Z,21.47
2018-06-24T09:40:43.387Z,21.91
2018-06-24T09:43:09.693Z,21.67
2018-06-24T09:45:35.978Z,21.27
2018-06-24T09:48:02.308Z,20.97
2018-06-24T09:50:28.642Z,20.76
2018-06-24T09:52:55.000Z,20.80
2018-06-24T09:55:21.247Z,20.96
2018-06-24T09:57:47.537Z,20.75
2018-06-24T10:00:13.833Z,20.67
2018-06-24T10:02:40.123Z,20.89
2018-06-24T10:05:06.427Z,20.79
2018-06-24T10:07:32.717Z,21.72
2018-06-24T10:09:59.046Z,23.88
2018-06-24T10:12:25.356Z,24.81
2018-06-24T10:14:51.645Z,25.51
2018-06-24T10:17:17.944Z,26.63
2018-06-24T10:19:44.231Z,24.53
2018-06-24T10:22:10.558Z,23.80
2018-06-24T10:24:36.866Z,23.48
2018-06-24T10:27:03.163Z,24.38
2018-06-24T10:29:29.520Z,24.11
2018-06-24T10:31:55.763Z,24.44
2018-06-24T10:34:22.059Z,24.59
2018-06-24T10:36:48.375Z,24.15
2018-06-24T10:39:14.675Z,23.35
2018-06-24T10:41:41.836Z,22.64
2018-06-24T10:44:08.166Z,22.46
2018-06-24T10:46:34.492Z,22.20
2018-06-24T10:49:00.783Z,22.13
2018-06-24T10:51:27.078Z,21.97
2018-06-24T10:53:53.372Z,22.45
2018-06-24T10:56:19.665Z,22.63
2018-06-24T10:58:45.957Z,22.99
2018-06-24T11:01:12.239Z,24.08
2018-06-24T11:03:38.568Z,24.65
2018-06-24T11:06:04.854Z,23.70
2018-06-24T11:08:31.157Z,24.22
2018-06-24T11:10:57.443Z,24.56
2018-06-24T11:13:23.765Z,23.66
2018-06-24T11:15:50.056Z,23.65
2018-06-24T11:18:16.343Z,24.09
2018-06-24T11:20:42.630Z,24.55
2018-06-24T11:23:08.965Z,24.56
2018-06-24T11:25:35.257Z,24.82
2018-06-24T11:28:01.592Z,25.09
2018-06-24T11:30:27.870Z,25.35
2018-06-24T11:32:54.172Z,25.53
2018-06-24T11:35:20.459Z,24.94
2018-06-24T11:37:46.749Z,24.43
2018-06-24T11:40:13.038Z,24.28
2018-06-24T11:42:39.338Z,24.21
2018-06-24T11:45:05.635Z,24.51
2018-06-24T11:47:31.962Z,24.75
2018-06-24T11:49:58.251Z,24.79
2018-06-24T11:52:24.550Z,25.05
2018-06-24T11:54:50.843Z,24.97
2018-06-24T11:57:17.139Z,24.55
2018-06-24T11:59:43.547Z,24.56
2018-06-24T12:02:09.845Z,24.51
2018-06-24T12:04:36.130Z,24.13
2018-06-24T12:07:02.431Z,24.39
2018-06-24T12:09:28.721Z,24.87
2018-06-24T12:11:55.115Z,25.29
2018-06-24T12:14:21.411Z,25.07
2018-06-24T12:16:47.747Z,24.68
2018-06-24T12:19:14.043Z,24.54
2018-06-24T12:21:40.353Z,24.85
2018-06-24T12:24:06.665Z,24.63
2018-06-24T12:26:33.236Z,23.52
2018-06-24T12:28:59.561Z,23.22
2018-06-24T12:31:25.846Z,23.55
2018-06-24T12:33:52.136Z,23.89
2018-06-24T12:36:18.423Z,24.07
2018-06-24T12:38:44.720Z,24.29
2018-06-24T12:41:11.028Z,24.31
2018-06-24T12:43:37.311Z,24.13
2018-06-24T12:46:03.643Z,23.58
2018-06-24T12:48:29.927Z,23.27
2018-06-24T12:50:56.221Z,23.94
2018-06-24T12:53:22.521Z,24.04
2018-06-24T12:55:48.806Z,24.20
2018-06-24T12:58:15.132Z,24.51
2018-06-24T13:00:41.758Z,25.16
2018-06-24T13:03:07.748Z,25.10
2018-06-24T13:05:34.336Z,24.40
2018-06-24T13:08:00.559Z,23.72
2018-06-24T13:10:26.854Z,23.68
2018-06-24T13:12:53.158Z,23.85
2018-06-24T13:15:19.451Z,24.03
2018-06-24T13:17:45.776Z,24.07
2018-06-24T13:20:12.075Z,24.20
2018-06-24T13:22:38.371Z,24.96
2018-06-24T13:25:04.706Z,25.67
2018-06-24T13:27:30.997Z,26.52
2018-06-24T13:29:57.287Z,25.87
2018-06-24T13:32:23.579Z,24.87
2018-06-24T13:34:49.907Z,24.42
2018-06-24T13:37:16.190Z,24.17
2018-06-24T13:39:42.481Z,23.99
2018-06-24T13:42:08.805Z,23.63
2018-06-24T13:44:35.125Z,23.26
2018-06-24T13:47:01.414Z,23.04
2018-06-24T13:49:27.698Z,23.09
2018-06-24T13:51:54.016Z,23.16
2018-06-24T13:54:20.303Z,23.26
2018-06-24T13:56:46.601Z,23.44
2018-06-24T13:59:12.895Z,23.54
2018-06-24T14:01:39.188Z,23.50
2018-06-24T14:04:05.564Z,23.23
2018-06-24T14:06:31.788Z,23.09
2018-06-24T14:08:58.154Z,23.23
2018-06-24T14:11:24.450Z,23.15
2018-06-24T14:13:50.734Z,22.99
2018-06-24T14:16:17.031Z,23.02
2018-06-24T14:18:43.313Z,23.16
2018-06-24T14:21:09.643Z,23.01
2018-06-24T14:23:36.010Z,22.91
2018-06-24T14:26:02.231Z,22.85
2018-06-24T14:28:28.526Z,22.61
2018-06-24T14:30:54.819Z,22.74
2018-06-24T14:33:21.113Z,22.86
2018-06-24T14:35:47.421Z,22.85
2018-06-24T14:38:13.767Z,22.67
2018-06-24T14:40:40.063Z,22.55
2018-06-24T14:43:06.358Z,22.45
2018-06-24T14:45:32.650Z,22.39
2018-06-24T14:47:58.953Z,22.53
2018-06-24T14:50:25.250Z,22.57
2018-06-24T14:52:51.544Z,22.37
2018-06-24T14:55:17.880Z,22.32
2018-06-24T14:57:44.163Z,22.39
2018-06-24T15:00:10.518Z,22.47
2018-06-24T15:02:36.812Z,22.53
2018-06-24T15:05:03.109Z,22.56
2018-06-24T15:07:29.408Z,22.57
2018-06-24T15:09:55.697Z,22.55
2018-06-24T15:12:22.004Z,22.47
2018-06-24T15:14:48.346Z,22.46
2018-06-24T15:17:14.676Z,22.44
2018-06-24T15:19:40.988Z,22.19
2018-06-24T15:22:07.291Z,21.96
2018-06-24T15:24:33.584Z,21.95
2018-06-24T15:26:59.882Z,21.95
2018-06-24T15:29:26.217Z,22.22
2018-06-24T15:31:52.506Z,22.39
2018-06-24T15:34:18.803Z,22.37
2018-06-24T15:36:45.097Z,22.34
2018-06-24T15:39:11.384Z,22.29
2018-06-24T15:41:37.679Z,22.31
2018-06-24T15:44:04.100Z,22.30
2018-06-24T15:46:30.383Z,22.34
2018-06-24T15:48:56.667Z,22.25
2018-06-24T15:51:23.016Z,22.42
2018-06-24T15:53:49.293Z,22.52
2018-06-24T15:56:15.587Z,22.54
2018-06-24T15:58:41.886Z,22.47
2018-06-24T16:01:08.176Z,22.48
2018-06-24T16:03:34.472Z,22.34
2018-06-24T16:06:00.810Z,22.11
2018-06-24T16:08:27.420Z,22.04
2018-06-24T16:10:53.709Z,22.05
2018-06-24T16:13:20.003Z,22.08
2018-06-24T16:15:46.303Z,22.05
2018-06-24T16:18:12.627Z,21.96
2018-06-24T16:20:39.041Z,21.97
2018-06-24T16:23:05.218Z,21.78
2018-06-24T16:25:31.522Z,21.58
2018-06-24T16:27:57.819Z,21.54
2018-06-24T16:30:24.123Z,21.63
2018-06-24T16:32:50.416Z,21.61
2018-06-24T16:35:16.736Z,21.50
2018-06-24T16:37:43.026Z,21.53
2018-06-24T16:40:09.317Z,21.36
2018-06-24T16:42:35.615Z,21.09
2018-06-24T16:45:01.913Z,20.97
2018-06-24T16:47:28.207Z,20.92
2018-06-24T16:49:54.507Z,20.75
2018-06-24T16:52:20.800Z,20.64
2018-06-24T16:54:47.095Z,20.59
2018-06-24T16:57:13.417Z,20.50
2018-06-24T16:59:39.714Z,20.44
2018-06-24T17:02:06.018Z,20.42
2018-06-24T17:04:32.345Z,20.38
2018-06-24T17:06:58.619Z,20.36
2018-06-24T17:09:24.923Z,20.39
2018-06-24T17:11:51.239Z,20.30
2018-06-24T17:14:17.529Z,20.25
2018-06-24T17:16:43.824Z,20.25
2018-06-24T17:19:10.110Z,20.16
2018-06-24T17:21:36.409Z,20.12
2018-06-24T17:24:02.705Z,20.00
2018-06-24T17:26:29.029Z,19.97
2018-06-24T17:28:55.358Z,20.06
2018-06-24T17:31:21.649Z,19.99
2018-06-24T17:33:47.938Z,19.96
2018-06-24T17:36:14.248Z,20.00
2018-06-24T17:38:40.564Z,19.97
2018-06-24T17:41:06.853Z,19.93
2018-06-24T17:43:33.147Z,19.87
2018-06-24T17:45:59.461Z,19.80
2018-06-24T17:48:25.750Z,19.71
2018-06-24T17:50:52.055Z,19.60
2018-06-24T17:53:18.356Z,19.54
2018-06-24T17:55:44.644Z,19.54
2018-06-24T17:58:10.943Z,19.54
2018-06-24T18:00:37.292Z,19.49
2018-06-24T18:03:03.587Z,19.53
2018-06-24T18:05:29.887Z,19.39
2018-06-24T18:07:56.177Z,19.27
2018-06-24T18:10:22.459Z,19.25
2018-06-24T18:12:48.744Z,19.20
2018-06-24T18:15:15.095Z,19.23
2018-06-24T18:17:41.384Z,19.12
2018-06-24T18:20:07.640Z,19.03
2018-06-24T18:22:33.979Z,19.05
2018-06-24T18:25:00.235Z,19.00
2018-06-24T18:27:26.525Z,18.95
2018-06-24T18:29:52.823Z,18.92
2018-06-24T18:32:19.468Z,18.92
2018-06-24T18:34:45.718Z,18.94
2018-06-24T18:37:12.024Z,19.01
2018-06-24T18:39:38.339Z,19.03
2018-06-24T18:42:04.611Z,19.01
2018-06-24T18:44:30.907Z,18.95
2018-06-24T18:46:57.208Z,18.89
2018-06-24T18:49:23.629Z,18.78
2018-06-24T18:51:49.842Z,18.76
2018-06-24T18:54:16.129Z,18.73
2018-06-24T18:56:42.469Z,18.71
2018-06-24T18:59:08.700Z,18.74
2018-06-24T19:01:34.997Z,18.76
2018-06-24T19:04:01.286Z,18.67
2018-06-24T19:06:27.630Z,18.60
2018-06-24T19:08:53.925Z,18.53
2018-06-24T19:11:20.297Z,18.50
2018-06-24T19:13:46.585Z,18.46
2018-06-24T19:16:12.936Z,18.46
2018-06-24T19:18:39.338Z,18.43
2018-06-24T19:21:05.631Z,18.36
2018-06-24T19:23:31.924Z,18.35
2018-06-24T19:25:58.221Z,18.32
2018-06-24T19:28:24.626Z,18.28
2018-06-24T19:30:50.880Z,18.25
2018-06-24T19:33:17.176Z,18.29
2018-06-24T19:35:43.464Z,18.24
2018-06-24T19:38:09.763Z,18.26
2018-06-24T19:40:36.052Z,18.26
2018-06-24T19:43:02.335Z,18.17
2018-06-24T19:45:28.669Z,18.15
2018-06-24T19:47:54.960Z,18.10
2018-06-24T19:50:21.291Z,18.06
2018-06-24T19:52:47.827Z,17.99
2018-06-24T19:55:14.201Z,17.90
2018-06-24T19:57:40.497Z,17.91
2018-06-24T20:00:07.037Z,17.89
2018-06-24T20:02:33.521Z,17.93
2018-06-24T20:04:59.806Z,17.90
2018-06-24T20:07:26.100Z,17.88
2018-06-24T20:09:52.388Z,17.83
2018-06-24T20:12:18.683Z,17.76
2018-06-24T20:14:44.970Z,17.71
2018-06-24T20:17:11.305Z,17.60
2018-06-24T20:19:37.592Z,17.56
2018-06-24T20:22:03.892Z,17.58
2018-06-24T20:24:30.195Z,17.60
2018-06-24T20:26:56.481Z,17.58
2018-06-24T20:29:22.770Z,17.52
2018-06-24T20:31:49.063Z,17.52
2018-06-24T20:34:15.361Z,17.47
2018-06-24T20:36:41.679Z,17.38
2018-06-24T20:39:07.962Z,17.38
2018-06-24T20:41:34.289Z,17.36
2018-06-24T20:44:00.588Z,17.33
2018-06-24T20:46:27.767Z,17.29
2018-06-24T20:48:54.070Z,17.23
2018-06-24T20:51:20.354Z,17.22
2018-06-24T20:53:46.667Z,17.21
2018-06-24T20:56:12.966Z,17.19
2018-06-24T20:58:39.293Z,17.23
2018-06-24T21:01:05.556Z,17.22
2018-06-24T21:03:31.874Z,17.16
2018-06-24T21:05:58.686Z,17.11
2018-06-24T21:11:16.236Z,17.02
2018-06-24T21:13:45.483Z,17.01
2018-06-24T21:16:11.912Z,17.00
2018-06-24T21:18:38.213Z,16.97
2018-06-24T21:21:04.557Z,16.89
2018-06-24T21:23:30.882Z,16.84
2018-06-24T21:25:57.168Z,16.82
2018-06-24T21:28:23.498Z,16.72
2018-06-24T21:30:49.805Z,16.67
2018-06-24T21:33:16.130Z,16.60
2018-06-24T21:35:42.428Z,16.56
2018-06-24T21:38:08.718Z,16.49
2018-06-24T21:40:35.020Z,16.36
2018-06-24T21:43:01.312Z,16.32
2018-06-24T21:45:27.638Z,16.31
2018-06-24T21:47:53.935Z,16.33
2018-06-24T21:50:20.241Z,16.35
2018-06-24T21:52:46.536Z,16.30
2018-06-24T21:55:12.850Z,16.18
2018-06-24T21:57:39.184Z,16.10
2018-06-24T22:00:05.482Z,16.07
2018-06-24T22:02:31.772Z,16.02
2018-06-24T22:04:58.104Z,15.97
2018-06-24T22:07:24.402Z,15.94
2018-06-24T22:09:50.704Z,15.89
2018-06-24T22:12:16.997Z,15.92
2018-06-24T22:14:43.326Z,15.95
2018-06-24T22:17:09.608Z,15.92
2018-06-24T22:19:35.895Z,15.85
2018-06-24T22:22:02.212Z,15.73
2018-06-24T22:24:28.490Z,15.63
2018-06-24T22:26:54.821Z,15.58
2018-06-24T22:29:21.101Z,15.53
2018-06-24T22:31:47.389Z,15.45
2018-06-24T22:34:13.685Z,15.50
2018-06-24T22:36:39.978Z,15.60
2018-06-24T22:39:06.311Z,15.69
2018-06-24T22:41:32.608Z,15.60
2018-06-24T22:43:58.903Z,15.59
2018-06-24T22:46:25.195Z,15.51
2018-06-24T22:48:51.488Z,15.47
2018-06-24T22:51:17.783Z,15.48
2018-06-24T22:53:44.078Z,15.45
2018-06-24T22:56:10.416Z,15.45
2018-06-24T22:58:36.704Z,15.49
2018-06-24T23:01:03.069Z,15.48
2018-06-24T23:03:29.299Z,15.46
2018-06-24T23:05:55.588Z,15.45
2018-06-24T23:08:21.884Z,15.42
2018-06-24T23:10:48.172Z,15.37
2018-06-24T23:13:14.488Z,15.29
2018-06-24T23:15:40.779Z,15.26
2018-06-24T23:18:07.068Z,15.28
2018-06-24T23:20:33.368Z,15.26
2018-06-24T23:22:59.656Z,15.17
2018-06-24T23:25:25.948Z,15.14
2018-06-24T23:27:52.236Z,15.16
2018-06-24T23:30:18.528Z,15.20
2018-06-24T23:32:44.824Z,15.22
2018-06-24T23:35:11.117Z,15.23
2018-06-24T23:37:37.408Z,15.21
2018-06-24T23:40:03.696Z,15.19
2018-06-24T23:42:30.023Z,15.19
2018-06-24T23:44:56.323Z,15.20
2018-06-24T23:47:22.618Z,15.15
2018-06-24T23:49:48.913Z,15.11
2018-06-24T23:52:15.204Z,15.11
2018-06-24T23:54:41.542Z,15.07
2018-06-24T23:57:07.843Z,15.03
2018-06-24T23:59:34.134Z,14.98
